createdAt,value
2023-02-08T00:02:25.322Z,68.84
2023-02-08T00:04:55.664Z,68.50
2023-02-08T00:07:25.168Z,68.69
2023-02-08T00:09:53.732Z,68.13
2023-02-08T00:12:24.088Z,67.99
2023-02-08T00:14:52.254Z,67.54
2023-02-08T00:17:20.628Z,67.47
2023-02-08T00:19:48.843Z,67.57
2023-02-08T00:22:17.728Z,67.58
2023-02-08T00:24:45.906Z,67.41
2023-02-08T00:27:16.002Z,67.57
2023-02-08T00:29:45.049Z,67.74
2023-02-08T00:32:13.480Z,67.62
2023-02-08T00:34:44.541Z,67.06
2023-02-08T00:37:13.574Z,67.24
2023-02-08T00:39:42.748Z,67.13
2023-02-08T00:42:11.602Z,67.05
2023-02-08T00:44:41.489Z,67.24
2023-02-08T00:47:11.322Z,67.59
2023-02-08T00:49:40.761Z,67.51
2023-02-08T00:52:09.134Z,67.14
2023-02-08T00:54:44.715Z,67.23
2023-02-08T00:57:34.054Z,67.49
2023-02-08T01:00:04.709Z,67.49
2023-02-08T01:02:34.808Z,67.13
2023-02-08T01:05:05.233Z,66.99
2023-02-08T01:07:39.174Z,67.09
2023-02-08T01:10:09.696Z,67.10
2023-02-08T01:12:38.757Z,66.58
2023-02-08T01:15:08.763Z,66.94
2023-02-08T01:17:38.487Z,66.80
2023-02-08T01:20:10.935Z,66.73
2023-02-08T01:22:40.424Z,66.61
2023-02-08T01:25:08.868Z,66.47
2023-02-08T01:27:39.179Z,66.53
2023-02-08T01:30:10.303Z,66.61
2023-02-08T01:32:38.789Z,66.45
2023-02-08T01:35:08.011Z,67.18
2023-02-08T01:37:43.056Z,67.11
2023-02-08T01:40:33.308Z,66.89
2023-02-08T01:43:02.559Z,66.78
2023-02-08T01:45:34.666Z,66.50
2023-02-08T01:48:09.952Z,66.96
2023-02-08T01:51:14.031Z,67.21
2023-02-08T01:53:42.817Z,66.96
2023-02-08T01:56:14.644Z,66.70
2023-02-08T01:58:45.861Z,66.64
2023-02-08T02:01:14.220Z,67.17
2023-02-08T02:03:42.694Z,66.82
2023-02-08T02:06:18.329Z,66.53
2023-02-08T02:09:08.052Z,66.76
2023-02-08T02:11:41.641Z,66.72
2023-02-08T02:14:10.789Z,66.63
2023-02-08T02:16:43.161Z,66.70
2023-02-08T02:19:50.976Z,66.59
2023-02-08T02:22:27.795Z,66.56
2023-02-08T02:25:19.588Z,66.36
2023-02-08T02:28:07.456Z,66.68
2023-02-08T02:31:13.203Z,66.38
2023-02-08T02:33:41.611Z,66.46
2023-02-08T02:36:12.751Z,66.54
2023-02-08T02:39:05.147Z,66.74
2023-02-08T02:42:23.950Z,66.39
2023-02-08T02:45:27.574Z,66.33
2023-02-08T02:48:13.829Z,66.43
2023-02-08T02:50:47.598Z,66.45
2023-02-08T02:53:40.494Z,66.53
2023-02-08T02:56:13.812Z,66.46
2023-02-08T02:58:42.968Z,66.19
2023-02-08T03:01:11.256Z,66.52
2023-02-08T03:03:40.734Z,66.27
2023-02-08T03:06:40.867Z,66.89
2023-02-08T03:09:36.086Z,67.07
2023-02-08T03:12:28.445Z,67.00
2023-02-08T03:15:34.179Z,67.19
2023-02-08T03:18:08.885Z,66.97
2023-02-08T03:20:39.687Z,67.19
2023-02-08T03:23:20.685Z,67.32
2023-02-08T03:25:57.914Z,66.96
2023-02-08T03:28:40.232Z,67.20
2023-02-08T03:31:27.182Z,67.15
2023-02-08T03:34:01.970Z,67.43
2023-02-08T03:36:38.782Z,67.51
2023-02-08T03:39:09.240Z,67.33
2023-02-08T03:41:43.919Z,67.56
2023-02-08T03:44:17.349Z,67.58
2023-02-08T03:47:13.503Z,67.67
2023-02-08T03:49:41.856Z,67.64
2023-02-08T03:52:10.391Z,67.74
2023-02-08T03:54:45.611Z,67.95
2023-02-08T03:57:36.341Z,68.08
2023-02-08T04:00:10.720Z,68.01
2023-02-08T04:03:08.427Z,68.02
2023-02-08T04:05:37.439Z,68.39
2023-02-08T04:08:06.415Z,68.34
2023-02-08T04:10:34.852Z,68.19
2023-02-08T04:13:47.370Z,68.07
2023-02-08T04:16:15.920Z,68.00
2023-02-08T04:18:45.841Z,68.04
2023-02-08T04:21:14.731Z,68.04
2023-02-08T04:23:44.330Z,68.23
2023-02-08T04:26:12.671Z,68.06
2023-02-08T04:28:40.823Z,68.36
2023-02-08T04:31:09.304Z,68.76
2023-02-08T04:33:37.679Z,68.51
2023-02-08T04:36:06.601Z,68.88
2023-02-08T04:38:36.984Z,69.11
2023-02-08T04:41:06.101Z,69.49
2023-02-08T04:43:35.867Z,69.28
2023-02-08T04:46:04.259Z,69.18
2023-02-08T04:48:33.644Z,69.09
2023-02-08T04:51:01.950Z,69.13
2023-02-08T04:53:30.252Z,69.44
2023-02-08T04:55:58.435Z,69.21
2023-02-08T04:58:26.860Z,68.72
2023-02-08T05:00:55.524Z,69.01
2023-02-08T05:03:24.193Z,68.81
2023-02-08T05:05:59.464Z,68.75
2023-02-08T05:08:28.374Z,68.58
2023-02-08T05:10:56.826Z,68.66
2023-02-08T05:13:25.139Z,68.45
2023-02-08T05:15:54.272Z,68.38
2023-02-08T05:18:30.153Z,68.71
2023-02-08T05:21:01.277Z,68.47
2023-02-08T05:23:29.887Z,68.43
2023-02-08T05:25:58.470Z,67.92
2023-02-08T05:28:26.850Z,67.60
2023-02-08T05:30:55.663Z,67.81
2023-02-08T05:33:29.606Z,67.71
2023-02-08T05:35:59.320Z,67.67
2023-02-08T05:38:30.398Z,67.78
2023-02-08T05:40:58.863Z,67.78
2023-02-08T05:43:27.258Z,67.91
2023-02-08T05:45:55.699Z,68.54
2023-02-08T05:48:24.012Z,68.71
2023-02-08T05:50:55.460Z,68.59
2023-02-08T05:53:24.077Z,68.34
2023-02-08T05:55:53.241Z,68.50
2023-02-08T05:58:21.630Z,68.15
2023-02-08T06:00:51.663Z,67.90
2023-02-08T06:03:20.435Z,68.02
2023-02-08T06:05:51.371Z,67.76
2023-02-08T06:08:19.875Z,67.73
2023-02-08T06:10:49.289Z,66.79
2023-02-08T06:13:18.469Z,66.08
2023-02-08T06:15:49.798Z,65.23
2023-02-08T06:18:18.556Z,64.43
2023-02-08T06:20:47.178Z,63.55
2023-02-08T06:23:15.774Z,61.49
2023-02-08T06:25:47.973Z,59.78
2023-02-08T06:28:16.779Z,57.37
2023-02-08T06:30:45.248Z,55.81
2023-02-08T06:33:35.884Z,53.29
2023-02-08T06:36:04.596Z,52.17
2023-02-08T06:38:33.122Z,52.38
2023-02-08T06:41:01.599Z,53.09
2023-02-08T06:43:31.701Z,53.79
2023-02-08T06:46:00.302Z,54.48
2023-02-08T06:48:28.979Z,55.26
2023-02-08T06:50:58.035Z,56.34
2023-02-08T06:53:26.794Z,56.99
2023-02-08T06:55:55.422Z,57.99
2023-02-08T06:58:24.237Z,58.51
2023-02-08T07:00:52.601Z,59.45
2023-02-08T07:03:23.007Z,60.24
2023-02-08T07:18:13.170Z,61.69
2023-02-08T07:20:42.282Z,61.92
2023-02-08T07:23:13.541Z,61.68
2023-02-08T07:25:42.044Z,61.64
2023-02-08T07:28:10.857Z,61.76
2023-02-08T07:30:39.665Z,62.40
2023-02-08T07:33:08.666Z,62.89
2023-02-08T07:35:37.234Z,63.34
2023-02-08T07:38:06.118Z,63.35
2023-02-08T07:40:36.386Z,63.35
2023-02-08T07:43:06.766Z,63.18
2023-02-08T07:45:45.932Z,63.35
2023-02-08T07:48:40.233Z,63.44
2023-02-08T07:51:11.377Z,63.49
2023-02-08T07:53:41.402Z,63.32
2023-02-08T07:56:13.249Z,63.72
2023-02-08T07:58:43.055Z,63.57
2023-02-08T08:01:22.031Z,63.31
2023-02-08T08:04:13.506Z,63.11
2023-02-08T08:06:47.746Z,62.90
2023-02-08T08:09:16.985Z,63.29
2023-02-08T08:11:45.644Z,62.84
2023-02-08T08:14:15.060Z,62.54
2023-02-08T08:16:44.067Z,62.57
2023-02-08T08:19:14.185Z,62.55
2023-02-08T08:21:43.289Z,62.63
2023-02-08T08:25:15.014Z,62.53
2023-02-08T08:27:46.409Z,62.67
2023-02-08T08:30:17.138Z,62.18
2023-02-08T08:32:45.759Z,61.92
2023-02-08T08:35:14.273Z,62.26
2023-02-08T08:37:42.592Z,62.32
2023-02-08T08:40:11.240Z,62.35
2023-02-08T08:42:40.315Z,62.73
2023-02-08T08:45:19.858Z,62.84
2023-02-08T08:47:49.321Z,63.20
2023-02-08T08:50:18.325Z,63.34
2023-02-08T08:52:46.805Z,63.22
2023-02-08T08:55:15.807Z,63.26
2023-02-08T08:57:44.720Z,63.13
2023-02-08T09:00:14.243Z,63.18
2023-02-08T09:02:42.829Z,62.98
2023-02-08T09:05:11.701Z,63.13
2023-02-08T09:19:44.981Z,63.31
2023-02-08T09:22:12.983Z,61.60
2023-02-08T09:24:40.204Z,60.06
2023-02-08T09:27:08.740Z,59.13
2023-02-08T09:29:36.174Z,58.37
2023-02-08T09:32:03.225Z,56.89
2023-02-08T09:34:30.451Z,54.55
2023-02-08T09:36:59.102Z,52.70
2023-02-08T09:39:25.915Z,50.43
2023-02-08T09:42:15.290Z,49.45
2023-02-08T09:44:55.606Z,47.91
2023-02-08T09:47:34.055Z,47.20
2023-02-08T09:50:03.852Z,46.37
2023-02-08T09:52:50.302Z,45.54
2023-02-08T09:55:38.332Z,45.01
2023-02-08T09:58:23.047Z,43.15
2023-02-08T10:00:51.111Z,42.41
2023-02-08T10:03:34.381Z,42.78
2023-02-08T10:06:04.458Z,42.24
2023-02-08T10:08:35.890Z,41.65
2023-02-08T10:11:43.591Z,41.37
2023-02-08T10:14:35.771Z,41.17
2023-02-08T10:17:27.829Z,40.32
2023-02-08T10:20:14.564Z,39.73
2023-02-08T10:22:53.893Z,39.53
2023-02-08T10:25:50.507Z,39.03
2023-02-08T10:29:05.345Z,38.40
2023-02-08T10:31:44.233Z,38.91
2023-02-08T10:34:23.961Z,38.69
2023-02-08T10:36:51.705Z,38.75
2023-02-08T10:39:26.231Z,38.28
2023-02-08T10:41:53.975Z,38.62
2023-02-08T10:44:34.031Z,38.31
2023-02-08T10:47:18.286Z,38.49
2023-02-08T10:53:57.544Z,38.55
2023-02-08T10:56:47.453Z,38.61
2023-02-08T10:59:49.912Z,38.56
2023-02-08T11:02:26.483Z,38.74
2023-02-08T11:05:07.094Z,38.79
2023-02-08T11:07:37.230Z,38.87
2023-02-08T11:10:19.993Z,38.61
2023-02-08T11:13:05.343Z,38.88
2023-02-08T11:15:57.928Z,39.23
2023-02-08T11:19:35.714Z,39.43
2023-02-08T11:22:06.659Z,39.10
2023-02-08T11:24:40.803Z,39.63
2023-02-08T11:27:26.388Z,40.17
2023-02-08T11:30:18.918Z,40.73
2023-02-08T11:33:40.188Z,41.46
2023-02-08T11:36:12.180Z,42.03
2023-02-08T11:38:45.261Z,42.76
2023-02-08T11:41:18.603Z,43.60
2023-02-08T11:43:58.787Z,44.45
2023-02-08T11:46:29.545Z,45.13
2023-02-08T11:49:03.663Z,45.85
2023-02-08T11:51:45.167Z,46.26
2023-02-08T11:54:33.309Z,47.01
2023-02-08T11:57:14.735Z,47.46
2023-02-08T11:59:45.051Z,47.97
2023-02-08T12:02:40.514Z,48.12
2023-02-08T12:05:13.739Z,48.78
2023-02-08T12:08:21.228Z,49.21
2023-02-08T12:11:14.638Z,48.96
2023-02-08T12:14:28.902Z,49.02
2023-02-08T12:17:20.336Z,49.21
2023-02-08T12:20:17.240Z,49.10
2023-02-08T12:23:36.556Z,48.62
2023-02-08T12:26:17.579Z,49.10
2023-02-08T12:29:23.155Z,49.34
2023-02-08T12:32:03.091Z,49.32
2023-02-08T12:34:51.028Z,49.21
2023-02-08T12:37:48.140Z,49.38
2023-02-08T12:40:50.337Z,49.67
2023-02-08T12:43:25.918Z,49.68
2023-02-08T12:46:18.135Z,50.02
2023-02-08T12:49:00.964Z,50.08
2023-02-08T12:51:49.311Z,50.52
2023-02-08T12:54:34.270Z,50.86
2023-02-08T12:57:02.781Z,51.23
2023-02-08T13:00:02.292Z,51.51
2023-02-08T13:03:14.723Z,51.40
2023-02-08T13:06:01.678Z,51.49
2023-02-08T13:08:30.441Z,51.28
2023-02-08T13:11:18.824Z,51.11
2023-02-08T13:14:09.944Z,51.29
2023-02-08T13:16:44.227Z,51.78
2023-02-08T13:19:27.683Z,52.26
2023-02-08T13:22:03.740Z,53.09
2023-02-08T13:24:36.396Z,53.55
2023-02-08T13:27:07.307Z,54.18
2023-02-08T13:29:37.417Z,54.49
2023-02-08T13:32:10.240Z,54.96
2023-02-08T13:34:51.295Z,55.51
2023-02-08T13:37:30.176Z,55.95
2023-02-08T13:40:13.589Z,56.56
2023-02-08T13:45:39.784Z,57.63
2023-02-08T13:48:11.235Z,57.96
2023-02-08T13:50:47.469Z,58.13
2023-02-08T13:53:38.182Z,58.46
2023-02-08T13:56:13.793Z,58.72
2023-02-08T13:58:50.021Z,59.01
2023-02-08T14:01:28.540Z,59.25
2023-02-08T14:04:16.841Z,59.53
2023-02-08T14:06:45.947Z,59.55
2023-02-08T14:09:21.719Z,59.75
2023-02-08T14:11:56.695Z,59.98
2023-02-08T14:14:27.434Z,60.11
2023-02-08T14:17:04.052Z,60.34
2023-02-08T14:19:32.554Z,60.44
2023-02-08T14:22:04.149Z,60.84
2023-02-08T14:24:39.152Z,61.08
2023-02-08T14:27:23.269Z,61.33
2023-02-08T14:30:24.689Z,61.37
2023-02-08T14:33:18.687Z,61.67
2023-02-08T14:36:04.367Z,61.66
2023-02-08T14:38:50.336Z,61.92
2023-02-08T14:41:49.795Z,61.77
2023-02-08T14:44:37.261Z,62.10
2023-02-08T14:47:12.970Z,62.17
2023-02-08T14:49:44.680Z,62.30
2023-02-08T14:52:14.202Z,62.59
2023-02-08T14:54:48.534Z,62.72
2023-02-08T14:57:35.825Z,62.90
2023-02-08T15:00:15.985Z,62.94
2023-02-08T15:03:05.658Z,63.16
2023-02-08T15:05:42.204Z,63.30
2023-02-08T15:08:21.194Z,63.83
2023-02-08T15:11:22.056Z,63.78
2023-02-08T15:13:50.705Z,63.91
2023-02-08T15:16:18.114Z,64.18
2023-02-08T15:18:46.022Z,64.56
2023-02-08T15:21:18.214Z,64.36
2023-02-08T15:24:07.509Z,64.60
2023-02-08T15:26:34.753Z,64.93
2023-02-08T15:29:04.507Z,64.96
2023-02-08T15:31:33.437Z,64.97
2023-02-08T15:34:02.290Z,65.06
2023-02-08T15:36:33.309Z,64.97
2023-02-08T15:39:03.859Z,64.77
2023-02-08T15:41:53.432Z,64.43
2023-02-08T15:44:27.796Z,64.32
2023-02-08T15:46:57.683Z,64.39
2023-02-08T20:54:03.172Z,65.68
2023-02-08T20:56:35.951Z,64.99
2023-02-08T21:00:01.280Z,64.98
2023-02-08T21:02:31.557Z,65.53
2023-02-08T21:05:07.458Z,66.50
